createdAt,value
2018-12-15T00:01:44.092Z,102167.86
2018-12-15T00:04:14.367Z,102170.97
2018-12-15T00:06:45.245Z,102174.88
2018-12-15T00:09:16.001Z,102173.31
2018-12-15T00:11:46.013Z,102177.91
2018-12-15T00:14:16.692Z,102183.12
2018-12-15T00:16:47.081Z,102181.27
2018-12-15T00:19:17.649Z,102182.95
2018-12-15T00:21:47.802Z,102178.86
2018-12-15T00:24:18.020Z,102186.08
2018-12-15T00:26:48.038Z,102185.84
2018-12-15T00:29:18.409Z,102186.71
2018-12-15T00:31:49.705Z,102184.37
2018-12-15T00:34:19.884Z,102183.02
2018-12-15T00:36:51.445Z,102189.20
2018-12-15T00:39:21.995Z,102190.51
2018-12-15T00:41:52.294Z,102183.97
2018-12-15T00:44:22.891Z,102186.04
2018-12-15T00:46:53.758Z,102191.23
2018-12-15T00:49:23.879Z,102181.63
2018-12-15T00:51:55.106Z,102178.52
2018-12-15T00:54:25.913Z,102180.47
2018-12-15T00:56:55.889Z,102185.41
2018-12-15T00:59:26.604Z,102190.40
2018-12-15T01:01:56.780Z,102191.16
2018-12-15T01:04:26.819Z,102180.81
2018-12-15T01:06:56.981Z,102186.20
2018-12-15T01:09:27.130Z,102184.12
2018-12-15T01:11:57.305Z,102187.82
2018-12-15T01:14:27.435Z,102188.83
2018-12-15T01:16:57.595Z,102196.63
2018-12-15T01:19:28.434Z,102197.17
2018-12-15T01:21:58.481Z,102196.59
2018-12-15T01:24:29.293Z,102208.39
2018-12-15T01:26:59.562Z,102204.65
2018-12-15T01:29:30.590Z,102212.63
2018-12-15T01:32:00.833Z,102214.80
2018-12-15T01:34:31.081Z,102216.10
2018-12-15T01:37:01.680Z,102211.72
2018-12-15T01:39:32.781Z,102210.38
2018-12-15T01:42:02.833Z,102217.64
2018-12-15T01:44:33.464Z,102219.83
2018-12-15T01:47:03.660Z,102220.05
2018-12-15T01:49:33.688Z,102225.06
2018-12-15T01:52:03.954Z,102220.67
2018-12-15T01:54:34.083Z,102219.84
2018-12-15T01:57:05.592Z,102215.06
2018-12-15T01:59:35.633Z,102217.86
2018-12-15T02:02:05.741Z,102219.80
2018-12-15T02:04:35.918Z,102221.27
2018-12-15T02:07:06.722Z,102220.11
2018-12-15T02:09:36.934Z,102219.08
2018-12-15T02:12:07.478Z,102226.17
2018-12-15T02:14:37.718Z,102220.78
2018-12-15T02:17:07.915Z,102220.30
2018-12-15T02:19:38.071Z,102217.58
2018-12-15T02:22:08.962Z,102217.61
2018-12-15T02:24:39.193Z,102216.58
2018-12-15T02:27:09.245Z,102225.27
2018-12-15T02:29:39.452Z,102217.30
2018-12-15T02:32:09.524Z,102223.17
2018-12-15T02:34:40.107Z,102224.27
2018-12-15T02:37:10.207Z,102225.92
2018-12-15T02:39:40.417Z,102222.28
2018-12-15T02:42:10.501Z,102217.86
2018-12-15T02:44:41.442Z,102220.33
2018-12-15T02:47:11.377Z,102225.58
2018-12-15T02:49:41.554Z,102216.53
2018-12-15T02:52:12.098Z,102221.67
2018-12-15T02:54:42.886Z,102226.77
2018-12-15T02:57:13.702Z,102221.44
2018-12-15T02:59:44.566Z,102218.41
2018-12-15T03:02:14.777Z,102218.38
2018-12-15T03:04:44.877Z,102215.57
2018-12-15T03:07:14.991Z,102206.73
2018-12-15T03:09:45.178Z,102212.40
2018-12-15T03:12:15.261Z,102210.73
2018-12-15T03:14:46.776Z,102213.18
2018-12-15T03:17:17.945Z,102210.64
2018-12-15T03:19:48.883Z,102211.27
2018-12-15T03:22:19.596Z,102205.94
2018-12-15T03:24:50.371Z,102207.21
2018-12-15T03:27:20.469Z,102207.70
2018-12-15T03:29:50.835Z,102205.66
2018-12-15T03:32:21.047Z,102215.09
2018-12-15T03:34:51.328Z,102214.80
2018-12-15T03:37:21.531Z,102210.24
2018-12-15T03:39:51.574Z,102215.59
2018-12-15T03:42:22.671Z,102219.06
2018-12-15T03:44:52.758Z,102221.61
2018-12-15T03:47:24.050Z,102219.80
2018-12-15T03:49:54.215Z,102218.16
2018-12-15T03:52:25.573Z,102221.64
2018-12-15T03:54:55.792Z,102224.22
2018-12-15T03:57:25.877Z,102218.43
2018-12-15T03:59:55.963Z,102226.25
2018-12-15T04:02:26.871Z,102226.43
2018-12-15T04:04:57.941Z,102232.61
2018-12-15T04:07:28.032Z,102235.30
2018-12-15T04:09:58.094Z,102228.35
2018-12-15T04:12:28.305Z,102232.91
2018-12-15T04:14:58.688Z,102229.91
2018-12-15T04:17:29.327Z,102235.27
2018-12-15T04:19:59.344Z,102229.69
2018-12-15T04:22:29.427Z,102224.19
2018-12-15T04:25:01.018Z,102231.66
2018-12-15T04:27:31.054Z,102229.57
2018-12-15T04:30:01.627Z,102230.78
2018-12-15T04:32:31.785Z,102218.06
2018-12-15T04:35:02.541Z,102230.05
2018-12-15T04:37:32.570Z,102229.14
2018-12-15T04:40:03.330Z,102235.01
2018-12-15T04:42:33.230Z,102238.07
2018-12-15T04:45:04.366Z,102239.77
2018-12-15T04:47:34.580Z,102246.82
2018-12-15T04:50:05.094Z,102245.20
2018-12-15T04:52:35.171Z,102252.52
2018-12-15T04:55:05.880Z,102249.48
2018-12-15T04:57:36.510Z,102252.86
2018-12-15T05:00:08.197Z,102248.78
2018-12-15T05:02:43.811Z,102244.95
2018-12-15T05:05:11.291Z,102249.40
2018-12-15T05:07:41.415Z,102246.20
2018-12-15T05:10:11.546Z,102247.59
2018-12-15T05:12:41.673Z,102252.22
2018-12-15T05:15:11.735Z,102253.52
2018-12-15T05:17:41.690Z,102253.72
2018-12-15T05:20:11.780Z,102254.52
2018-12-15T05:22:41.906Z,102252.88
2018-12-15T05:25:12.999Z,102247.45
2018-12-15T05:27:44.039Z,102247.23
2018-12-15T05:30:14.227Z,102254.06
2018-12-15T05:32:44.203Z,102242.60
2018-12-15T05:35:14.455Z,102249.50
2018-12-15T05:37:45.151Z,102251.25
2018-12-15T05:40:15.845Z,102256.19
2018-12-15T05:42:46.115Z,102252.98
2018-12-15T05:45:17.420Z,102246.07
2018-12-15T05:47:47.556Z,102244.11
2018-12-15T05:50:18.060Z,102247.14
2018-12-15T05:52:48.967Z,102248.36
2018-12-15T05:55:20.040Z,102256.95
2018-12-15T05:57:50.231Z,102251.34
2018-12-15T06:00:20.534Z,102262.30
2018-12-15T06:02:50.833Z,102252.83
2018-12-15T06:05:21.232Z,102247.84
2018-12-15T06:07:54.539Z,102249.12
2018-12-15T06:10:24.560Z,102254.65
2018-12-15T06:12:54.552Z,102255.80
2018-12-15T06:15:24.644Z,102254.73
2018-12-15T06:17:54.688Z,102259.72
2018-12-15T06:20:25.010Z,102263.06
2018-12-15T06:22:55.126Z,102261.42
2018-12-15T06:25:25.865Z,102259.84
2018-12-15T06:27:55.936Z,102263.66
2018-12-15T06:30:26.685Z,102263.78
2018-12-15T06:32:57.262Z,102261.42
2018-12-15T06:35:27.332Z,102266.12
2018-12-15T06:37:57.442Z,102262.25
2018-12-15T06:40:27.686Z,102261.26
2018-12-15T06:42:57.985Z,102264.59
2018-12-15T06:45:28.130Z,102260.66
2018-12-15T06:47:58.098Z,102261.53
2018-12-15T06:50:28.820Z,102260.60
2018-12-15T06:52:59.111Z,102258.38
2018-12-15T06:55:29.338Z,102263.20
2018-12-15T06:57:59.958Z,102260.60
2018-12-15T07:00:30.107Z,102260.38
2018-12-15T07:03:00.810Z,102261.14
2018-12-15T07:05:31.116Z,102269.03
2018-12-15T07:08:01.253Z,102259.62
2018-12-15T07:10:31.269Z,102263.27
2018-12-15T07:13:01.325Z,102271.13
2018-12-15T07:15:31.554Z,102269.95
2018-12-15T07:18:02.769Z,102272.87
2018-12-15T07:20:33.422Z,102272.92
2018-12-15T07:23:04.136Z,102269.67
2018-12-15T07:25:35.207Z,102275.84
2018-12-15T07:28:06.498Z,102273.23
2018-12-15T07:30:36.956Z,102270.41
2018-12-15T07:33:07.123Z,102270.59
2018-12-15T07:35:37.847Z,102272.44
2018-12-15T07:38:08.003Z,102268.37
2018-12-15T07:40:38.321Z,102271.44
2018-12-15T07:43:08.393Z,102273.41
2018-12-15T07:45:39.092Z,102279.73
2018-12-15T07:48:09.223Z,102278.39
2018-12-15T07:50:40.420Z,102278.27
2018-12-15T07:53:10.526Z,102281.80
2018-12-15T07:55:40.681Z,102269.59
2018-12-15T07:58:10.913Z,102274.95
2018-12-15T08:00:41.565Z,102271.41
2018-12-15T08:03:11.721Z,102274.56
2018-12-15T08:05:41.954Z,102281.11
2018-12-15T08:08:12.194Z,102277.81
2018-12-15T08:10:48.914Z,102277.50
2018-12-15T08:13:32.932Z,102282.15
2018-12-15T08:16:03.177Z,102281.18
2018-12-15T08:18:36.470Z,102284.01
2018-12-15T08:21:06.747Z,102284.36
2018-12-15T08:23:37.318Z,102281.91
2018-12-15T08:26:07.559Z,102289.01
2018-12-15T08:28:38.221Z,102278.32
2018-12-15T08:31:08.490Z,102279.39
2018-12-15T08:33:38.737Z,102282.39
2018-12-15T08:36:09.224Z,102281.02
2018-12-15T08:38:39.495Z,102280.59
2018-12-15T08:41:10.131Z,102279.47
2018-12-15T08:43:40.282Z,102281.61
2018-12-15T08:46:14.336Z,102290.87
2018-12-15T08:48:45.091Z,102286.70
2018-12-15T08:51:15.481Z,102294.02
2018-12-15T08:53:46.870Z,102293.57
2018-12-15T08:56:17.079Z,102291.38
2018-12-15T08:58:47.875Z,102286.75
2018-12-15T09:01:18.151Z,102288.03
2018-12-15T09:03:49.004Z,102290.01
2018-12-15T09:06:19.959Z,102289.75
2018-12-15T09:08:51.808Z,102296.56
2018-12-15T09:11:22.001Z,102296.23
2018-12-15T09:13:52.775Z,102291.77
2018-12-15T09:16:26.370Z,102291.28
2018-12-15T09:18:55.080Z,102284.84
2018-12-15T09:21:26.602Z,102289.70
2018-12-15T09:23:56.451Z,102294.09
2018-12-15T09:26:26.353Z,102294.29
2018-12-15T09:28:56.220Z,102292.34
2018-12-15T09:31:26.158Z,102286.44
2018-12-15T09:33:56.925Z,102290.75
2018-12-15T09:36:27.437Z,102284.48
2018-12-15T09:38:59.588Z,102292.11
2018-12-15T09:41:30.665Z,102285.58
2018-12-15T09:44:00.629Z,102294.55
2018-12-15T09:46:31.556Z,102284.91
2018-12-15T09:49:02.806Z,102285.95
2018-12-15T09:51:33.587Z,102282.13
2018-12-15T09:54:03.781Z,102288.64
2018-12-15T09:56:34.001Z,102281.86
2018-12-15T09:59:04.631Z,102278.31
2018-12-15T10:01:34.960Z,102285.92
2018-12-15T10:04:05.881Z,102281.03
2018-12-15T10:06:36.140Z,102287.52
2018-12-15T10:09:07.777Z,102278.03
2018-12-15T10:11:39.013Z,102276.94
2018-12-15T10:14:09.654Z,102283.72
2018-12-15T10:16:40.817Z,102272.41
2018-12-15T10:19:10.842Z,102273.69
2018-12-15T10:21:41.699Z,102272.66
2018-12-15T10:24:11.823Z,102268.38
2018-12-15T10:26:43.349Z,102266.61
2018-12-15T10:29:18.443Z,102257.84
2018-12-15T10:31:53.545Z,102247.92
2018-12-15T10:34:23.651Z,102249.02
2018-12-15T10:36:54.441Z,102241.48
2018-12-15T10:39:24.693Z,102245.53
2018-12-15T10:41:54.842Z,102247.82
2018-12-15T10:44:25.357Z,102246.67
2018-12-15T10:46:57.260Z,102244.34
2018-12-15T10:49:30.830Z,102230.99
2018-12-15T10:52:00.342Z,102238.56
2018-12-15T10:54:30.403Z,102233.86
2018-12-15T10:57:01.039Z,102227.82
2018-12-15T10:59:31.039Z,102230.43
2018-12-15T11:02:01.954Z,102224.23
2018-12-15T11:04:32.101Z,102218.83
2018-12-15T11:07:02.224Z,102217.51
2018-12-15T11:09:32.358Z,102213.36
2018-12-15T11:12:02.385Z,102215.91
2018-12-15T11:14:32.419Z,102213.70
2018-12-15T11:17:03.772Z,102210.05
2018-12-15T11:19:37.176Z,102214.23
2018-12-15T11:22:08.165Z,102212.16
2018-12-15T11:24:39.235Z,102211.00
2018-12-15T11:27:09.846Z,102205.09
2018-12-15T11:29:40.195Z,102203.92
2018-12-15T11:32:10.859Z,102207.02
2018-12-15T11:34:40.754Z,102201.14
2018-12-15T11:37:11.384Z,102204.23
2018-12-15T11:39:41.642Z,102198.16
2018-12-15T11:42:11.786Z,102205.36
2018-12-15T11:44:42.485Z,102199.13
2018-12-15T11:47:13.823Z,102194.81
2018-12-15T11:49:43.918Z,102198.98
2018-12-15T11:52:14.487Z,102204.14
2018-12-15T11:54:45.133Z,102193.83
2018-12-15T11:57:15.191Z,102200.91
2018-12-15T11:59:47.030Z,102185.19
2018-12-15T12:02:18.252Z,102184.93
2018-12-15T12:04:48.905Z,102180.65
2018-12-15T12:07:18.955Z,102181.12
2018-12-15T12:09:48.988Z,102178.20
2018-12-15T12:12:19.265Z,102175.73
2018-12-15T12:14:50.133Z,102172.66
2018-12-15T12:17:20.950Z,102173.02
2018-12-15T12:19:50.939Z,102178.18
2018-12-15T12:22:21.132Z,102169.63
2018-12-15T12:24:51.377Z,102169.20
2018-12-15T12:27:21.705Z,102176.66
2018-12-15T12:29:51.766Z,102173.41
2018-12-15T12:32:23.217Z,102168.00
2018-12-15T12:34:53.872Z,102169.59
2018-12-15T12:37:25.343Z,102164.38
2018-12-15T12:39:56.310Z,102159.73
2018-12-15T12:42:26.604Z,102154.66
2018-12-15T12:44:56.602Z,102160.62
2018-12-15T12:47:28.138Z,102163.41
2018-12-15T12:49:58.696Z,102157.23
2018-12-15T12:52:30.242Z,102163.96
2018-12-15T12:55:01.495Z,102160.91
2018-12-15T12:57:34.036Z,102153.20
2018-12-15T13:00:04.538Z,102160.72
2018-12-15T13:02:34.839Z,102165.34
2018-12-15T13:05:05.977Z,102154.69
2018-12-15T13:07:36.140Z,102151.84
2018-12-15T13:10:06.692Z,102153.89
2018-12-15T13:12:36.947Z,102156.05
2018-12-15T13:15:07.706Z,102143.81
2018-12-15T13:17:38.209Z,102143.31
2018-12-15T13:20:08.840Z,102144.86
2018-12-15T13:22:38.879Z,102145.34
2018-12-15T13:25:09.810Z,102149.48
2018-12-15T13:27:39.974Z,102146.02
2018-12-15T13:30:11.774Z,102144.81
2018-12-15T13:32:42.744Z,102143.56
2018-12-15T13:35:12.846Z,102134.70
2018-12-15T13:37:42.958Z,102139.14
2018-12-15T13:40:13.153Z,102138.94
2018-12-15T13:42:44.589Z,102140.09
2018-12-15T13:45:14.741Z,102140.39
2018-12-15T13:47:45.059Z,102135.88
2018-12-15T13:50:14.981Z,102127.77
2018-12-15T13:52:44.949Z,102138.27
2018-12-15T13:55:14.856Z,102136.48
2018-12-15T13:57:44.830Z,102135.23
2018-12-15T14:00:14.717Z,102131.81
2018-12-15T14:02:44.965Z,102129.34
2018-12-15T14:05:15.598Z,102134.87
2018-12-15T14:07:45.766Z,102124.82
2018-12-15T14:10:15.880Z,102129.31
2018-12-15T14:12:47.074Z,102125.09
2018-12-15T14:15:17.223Z,102111.48
2018-12-15T14:17:47.794Z,102122.06
2018-12-15T14:20:18.060Z,102119.23
2018-12-15T14:22:48.856Z,102111.02
2018-12-15T14:25:18.825Z,102112.73
2018-12-15T14:27:48.958Z,102103.81
2018-12-15T14:30:20.519Z,102095.41
2018-12-15T14:32:50.935Z,102097.39
2018-12-15T14:35:20.877Z,102102.54
2018-12-15T14:37:52.118Z,102097.89
2018-12-15T14:40:22.274Z,102100.44
2018-12-15T14:42:52.556Z,102087.77
2018-12-15T14:45:23.331Z,102091.43
2018-12-15T14:47:53.748Z,102096.21
2018-12-15T14:50:24.364Z,102097.44
2018-12-15T14:52:54.498Z,102093.02
2018-12-15T14:55:25.080Z,102087.61
2018-12-15T14:57:55.444Z,102090.11
2018-12-15T15:00:27.118Z,102088.88
2018-12-15T15:02:57.372Z,102087.45
2018-12-15T15:05:27.613Z,102086.63
2018-12-15T15:07:57.989Z,102079.80
2018-12-15T15:10:28.214Z,102075.53
2018-12-15T15:12:58.328Z,102073.80
2018-12-15T15:15:28.537Z,102069.52
2018-12-15T15:17:59.590Z,102064.11
2018-12-15T15:20:30.297Z,102054.67
2018-12-15T15:23:00.493Z,102058.91
2018-12-15T15:25:31.098Z,102052.88
2018-12-15T15:28:01.225Z,102058.03
2018-12-15T15:30:31.394Z,102042.41
2018-12-15T15:33:01.669Z,102041.06
2018-12-15T15:35:31.911Z,102042.91
2018-12-15T15:38:02.629Z,102048.48
2018-12-15T15:40:32.767Z,102039.51
2018-12-15T15:43:03.632Z,102030.98
2018-12-15T15:45:33.769Z,102027.63
2018-12-15T15:48:04.287Z,102026.28
2018-12-15T15:50:36.633Z,102016.48
2018-12-15T15:53:07.722Z,102028.36
2018-12-15T15:55:38.440Z,102029.41
2018-12-15T15:58:08.641Z,102022.27
2018-12-15T16:00:39.417Z,102026.30
2018-12-15T16:03:09.509Z,102026.17
2018-12-15T16:05:40.264Z,102020.38
2018-12-15T16:08:11.104Z,102013.93
2018-12-15T16:10:41.277Z,102010.60
2018-12-15T16:13:11.967Z,102004.36
2018-12-15T16:15:42.621Z,101999.41
2018-12-15T16:18:13.422Z,101991.58
2018-12-15T16:20:43.714Z,101989.03
2018-12-15T16:23:13.972Z,101988.66
2018-12-15T16:25:44.198Z,101978.81
2018-12-15T16:28:14.384Z,101973.77
2018-12-15T16:30:45.162Z,101962.80
2018-12-15T16:33:15.299Z,101957.70
2018-12-15T16:35:46.055Z,101955.57
2018-12-15T16:38:40.840Z,101956.06
2018-12-15T16:41:11.375Z,101952.10
2018-12-15T16:43:42.271Z,101952.69
2018-12-15T16:46:12.411Z,101954.05
2018-12-15T16:48:42.588Z,101957.08
2018-12-15T16:51:13.701Z,101956.63
2018-12-15T16:53:44.940Z,101946.15
2018-12-15T16:56:15.035Z,101951.03
2018-12-15T16:58:45.257Z,101944.41
2018-12-15T17:01:15.595Z,101945.91
2018-12-15T17:03:46.421Z,101946.27
2018-12-15T17:06:17.071Z,101940.51
2018-12-15T17:08:47.347Z,101941.23
2018-12-15T17:11:17.944Z,101930.73
2018-12-15T17:13:54.606Z,101936.64
2018-12-15T17:16:24.728Z,101932.08
2018-12-15T17:18:54.834Z,101934.09
2018-12-15T17:21:24.917Z,101927.55
2018-12-15T17:23:55.813Z,101920.33
2018-12-15T17:26:25.957Z,101944.23
2018-12-15T17:28:55.976Z,101932.36
2018-12-15T17:31:26.776Z,101933.55
2018-12-15T17:33:57.009Z,101926.77
2018-12-15T17:36:27.256Z,101928.56
2018-12-15T17:38:58.250Z,101932.14
2018-12-15T17:41:28.521Z,101922.97
2018-12-15T17:43:58.729Z,101922.91
2018-12-15T17:46:28.903Z,101917.48
2018-12-15T17:48:58.957Z,101923.12
2018-12-15T17:51:29.060Z,101911.52
2018-12-15T17:53:59.450Z,101910.61
2018-12-15T17:56:29.587Z,101907.51
2018-12-15T17:59:01.782Z,101902.02
2018-12-15T18:01:31.878Z,101905.58
2018-12-15T18:04:02.843Z,101891.00
2018-12-15T18:06:33.052Z,101892.27
2018-12-15T18:09:06.007Z,101888.50
2018-12-15T18:11:36.200Z,101881.80
2018-12-15T18:14:07.102Z,101875.71
2018-12-15T18:16:37.262Z,101870.86
2018-12-15T18:19:08.294Z,101874.37
2018-12-15T18:21:38.395Z,101867.20
2018-12-15T18:24:09.184Z,101858.73
2018-12-15T18:26:39.307Z,101852.77
2018-12-15T18:29:09.458Z,101848.05
2018-12-15T18:31:39.654Z,101846.31
2018-12-15T18:34:11.172Z,101850.15
2018-12-15T18:36:41.402Z,101839.16
2018-12-15T18:39:12.218Z,101840.92
2018-12-15T18:41:42.336Z,101844.45
2018-12-15T18:44:12.479Z,101833.37
2018-12-15T18:46:42.740Z,101842.38
2018-12-15T18:49:13.218Z,101861.65
2018-12-15T18:51:43.778Z,101825.43
2018-12-15T18:54:15.026Z,101827.59
2018-12-15T18:56:45.687Z,101818.18
2018-12-15T18:59:15.910Z,101814.80
2018-12-15T19:01:46.765Z,101809.69
2018-12-15T19:04:17.353Z,101808.44
2018-12-15T19:06:47.317Z,101813.47
2018-12-15T19:09:18.071Z,101813.96
2018-12-15T19:11:48.389Z,101791.84
2018-12-15T19:14:19.796Z,101795.63
2018-12-15T19:16:50.366Z,101797.32
2018-12-15T19:19:21.141Z,101792.20
2018-12-15T19:21:51.170Z,101782.44
2018-12-15T19:24:22.053Z,101783.39
2018-12-15T19:26:52.433Z,101776.91
2018-12-15T19:29:23.527Z,101779.56
2018-12-15T19:31:54.364Z,101771.42
2018-12-15T19:34:24.448Z,101769.73
2018-12-15T19:36:54.711Z,101768.08
2018-12-15T19:39:24.999Z,101788.04
2018-12-15T19:41:55.911Z,101760.34
2018-12-15T19:44:26.736Z,101767.70
2018-12-15T19:46:56.775Z,101751.89
2018-12-15T19:49:27.090Z,101748.97
2018-12-15T19:51:57.265Z,101746.36
2018-12-15T19:54:28.013Z,101743.42
2018-12-15T19:56:58.295Z,101750.63
2018-12-15T19:59:29.516Z,101744.34
2018-12-15T20:01:59.621Z,101730.74
2018-12-15T20:04:29.762Z,101736.29
2018-12-15T20:07:00.095Z,101719.34
2018-12-15T20:09:30.880Z,101717.62
2018-12-15T20:12:01.040Z,101712.88
2018-12-15T20:14:31.353Z,101708.27
2018-12-15T20:17:02.344Z,101707.87
2018-12-15T20:19:32.365Z,101711.23
2018-12-15T20:22:02.497Z,101706.05
2018-12-15T20:24:32.674Z,101702.77
2018-12-15T20:27:03.483Z,101694.27
2018-12-15T20:29:33.818Z,101678.97
2018-12-15T20:32:04.130Z,101683.65
2018-12-15T20:34:34.444Z,101680.14
2018-12-15T20:37:04.702Z,101674.56
2018-12-15T20:39:36.507Z,101680.56
2018-12-15T20:42:07.195Z,101669.07
2018-12-15T20:44:41.694Z,101661.93
2018-12-15T20:47:11.176Z,101650.03
2018-12-15T20:49:41.417Z,101654.11
2018-12-15T20:52:12.242Z,101640.68
2018-12-15T20:54:42.327Z,101636.83
2018-12-15T20:57:13.118Z,101618.91
2018-12-15T20:59:43.513Z,101614.70
2018-12-15T21:02:13.644Z,101619.37
2018-12-15T21:04:43.886Z,101612.98
2018-12-15T21:07:13.977Z,101607.44
2018-12-15T21:09:44.739Z,101626.17
2018-12-15T21:12:14.947Z,101601.53
2018-12-15T21:14:45.303Z,101606.13
2018-12-15T21:17:15.427Z,101600.44
2018-12-15T21:19:48.086Z,101592.80
2018-12-15T21:22:17.695Z,101588.51
2018-12-15T21:24:49.273Z,101591.21
2018-12-15T21:27:19.878Z,101577.75
2018-12-15T21:29:50.214Z,101587.06
2018-12-15T21:32:20.488Z,101581.47
2018-12-15T21:34:50.535Z,101588.69
2018-12-15T21:37:20.704Z,101584.06
2018-12-15T21:39:51.449Z,101581.02
2018-12-15T21:42:21.545Z,101574.58
2018-12-15T21:44:51.788Z,101576.98
2018-12-15T21:47:22.514Z,101583.31
2018-12-15T21:49:53.194Z,101575.91
2018-12-15T21:52:23.197Z,101575.91
2018-12-15T21:54:53.297Z,101571.23
2018-12-15T21:57:23.338Z,101569.48
2018-12-15T21:59:53.617Z,101569.49
2018-12-15T22:02:24.616Z,101565.57
2018-12-15T22:04:55.182Z,101559.67
2018-12-15T22:07:25.982Z,101565.17
2018-12-15T22:09:56.174Z,101562.59
2018-12-15T22:12:26.947Z,101561.36
2018-12-15T22:14:57.786Z,101557.43
2018-12-15T22:17:27.909Z,101561.70
2018-12-15T22:19:58.783Z,101555.67
2018-12-15T22:22:28.753Z,101550.09
2018-12-15T22:24:58.883Z,101545.86
2018-12-15T22:27:29.054Z,101533.09
2018-12-15T22:29:59.774Z,101530.04
2018-12-15T22:32:29.954Z,101522.78
2018-12-15T22:35:00.105Z,101530.41
2018-12-15T22:37:30.209Z,101514.70
2018-12-15T22:40:00.387Z,101508.23
2018-12-15T22:42:30.599Z,101505.70
2018-12-15T22:45:00.676Z,101503.16
2018-12-15T22:47:31.522Z,101499.34
2018-12-15T22:50:01.809Z,101488.73
2018-12-15T22:52:32.586Z,101485.61
2018-12-15T22:55:03.380Z,101489.53
2018-12-15T22:57:34.578Z,101481.44
2018-12-15T23:00:06.391Z,101476.02
2018-12-15T23:02:37.221Z,101471.72
2018-12-15T23:05:08.020Z,101474.15
2018-12-15T23:07:38.793Z,101463.62
2018-12-15T23:10:09.967Z,101451.13
2018-12-15T23:12:40.780Z,101447.39
2018-12-15T23:15:10.865Z,101454.23
2018-12-15T23:17:41.008Z,101442.66
2018-12-15T23:20:11.193Z,101430.84
2018-12-15T23:22:41.976Z,101419.34
2018-12-15T23:25:12.113Z,101412.97
2018-12-15T23:27:42.406Z,101410.97
2018-12-15T23:30:13.438Z,101408.34
2018-12-15T23:32:43.489Z,101401.54
2018-12-15T23:35:13.673Z,101385.42
2018-12-15T23:37:43.956Z,101382.52
2018-12-15T23:40:14.777Z,101382.03
2018-12-15T23:42:46.245Z,101374.77
2018-12-15T23:45:16.953Z,101376.90
2018-12-15T23:47:47.664Z,101360.38
2018-12-15T23:50:17.862Z,101356.95
2018-12-15T23:52:48.640Z,101350.20
2018-12-15T23:55:19.139Z,101358.30
2018-12-15T23:57:49.561Z,101355.34
